SYMP weather

Mountain Point Airport
Mountain Point, Upper Takutu-Upper Essequibo, Guyana

Public forecast

Using degrees Celsius for public forecast. Weather courtesy of forecast.io.

Closest aviation weather report (METAR) to Mountain Point Airport

Report is more than 6 hours old.

Closest report is Lethem Airport, 24.3 nm (44.9 km) NNW. Retrieved 2020/02/25 21:00 UTC (6 hours ago):

SYLT 252100Z 09010KT 9999 FEW028 32/22 Q//// NOSIG

Closest aviation forecast (TAF) to Mountain Point Airport

Forecast is more than 12 hours old.

Closest forecast is Lethem Airport, 24.3 nm (44.9 km) NNW. Retrieved 2020/02/25 12:00 UTC (15 hours ago):

TAF SYLT 251100Z 2512/2524 07010KT 9999 BKN018 SCT040 TEMPO 2116/2122 6000 SHRA BKN015